sensor_id;sensor_type;location;lat;lon;timestamp;temperature;humidity
68139;DHT22;54940;50.842;4.410;2023-04-03T00:00:04;5.60;99.90
68139;DHT22;54940;50.842;4.410;2023-04-03T00:02:30;5.70;99.90
68139;DHT22;54940;50.842;4.410;2023-04-03T00:04:56;5.70;99.90
68139;DHT22;54940;50.842;4.410;2023-04-03T00:07:22;5.80;99.90
68139;DHT22;54940;50.842;4.410;2023-04-03T00:09:47;5.80;99.90
68139;DHT22;54940;50.842;4.410;2023-04-03T00:12:13;5.60;99.90
68139;DHT22;54940;50.842;4.410;2023-04-03T00:14:39;5.60;99.90
68139;DHT22;54940;50.842;4.410;2023-04-03T00:17:04;5.40;99.90
68139;DHT22;54940;50.842;4.410;2023-04-03T00:19:30;5.40;99.90
68139;DHT22;54940;50.842;4.410;2023-04-03T00:21:56;5.30;99.90
68139;DHT22;54940;50.842;4.410;2023-04-03T00:24:22;5.10;99.90
68139;DHT22;54940;50.842;4.410;2023-04-03T00:26:47;5.00;99.90
68139;DHT22;54940;50.842;4.410;2023-04-03T00:29:13;5.10;99.90
68139;DHT22;54940;50.842;4.410;2023-04-03T00:31:39;5.30;99.90
68139;DHT22;54940;50.842;4.410;2023-04-03T00:34:05;5.40;99.90
68139;DHT22;54940;50.842;4.410;2023-04-03T00:36:30;5.10;99.90
68139;DHT22;54940;50.842;4.410;2023-04-03T00:38:56;5.20;99.90
68139;DHT22;54940;50.842;4.410;2023-04-03T00:41:22;5.20;99.90
68139;DHT22;54940;50.842;4.410;2023-04-03T00:43:47;5.40;99.90
68139;DHT22;54940;50.842;4.410;2023-04-03T00:46:13;5.30;99.90
68139;DHT22;54940;50.842;4.410;2023-04-03T00:48:44;5.30;99.90
68139;DHT22;54940;50.842;4.410;2023-04-03T00:51:17;5.30;99.90
68139;DHT22;54940;50.842;4.410;2023-04-03T00:53:51;5.30;99.90
68139;DHT22;54940;50.842;4.410;2023-04-03T00:56:21;5.30;99.90
68139;DHT22;54940;50.842;4.410;2023-04-03T00:58:53;5.30;99.90
68139;DHT22;54940;50.842;4.410;2023-04-03T01:01:24;5.20;99.90
68139;DHT22;54940;50.842;4.410;2023-04-03T01:03:50;5.10;99.90
68139;DHT22;54940;50.842;4.410;2023-04-03T01:06:17;5.10;99.90
68139;DHT22;54940;50.842;4.410;2023-04-03T01:08:48;5.10;99.90
68139;DHT22;54940;50.842;4.410;2023-04-03T01:11:14;5.10;99.90
68139;DHT22;54940;50.842;4.410;2023-04-03T01:13:40;5.00;99.90
68139;DHT22;54940;50.842;4.410;2023-04-03T01:16:07;4.90;99.90
68139;DHT22;54940;50.842;4.410;2023-04-03T01:18:36;4.80;99.90
68139;DHT22;54940;50.842;4.410;2023-04-03T01:26:18;4.90;99.90
68139;DHT22;54940;50.842;4.410;2023-04-03T01:28:43;5.00;99.90
68139;DHT22;54940;50.842;4.410;2023-04-03T01:31:26;4.90;99.90
68139;DHT22;54940;50.842;4.410;2023-04-03T01:33:52;4.90;99.90
68139;DHT22;54940;50.842;4.410;2023-04-03T01:36:22;5.00;99.90
68139;DHT22;54940;50.842;4.410;2023-04-03T01:38:49;5.10;99.90
68139;DHT22;54940;50.842;4.410;2023-04-03T01:41:15;4.90;99.90
68139;DHT22;54940;50.842;4.410;2023-04-03T01:43:41;4.80;99.90
68139;DHT22;54940;50.842;4.410;2023-04-03T01:46:07;4.60;99.90
68139;DHT22;54940;50.842;4.410;2023-04-03T01:48:33;4.60;99.90
68139;DHT22;54940;50.842;4.410;2023-04-03T01:50:59;4.50;99.90
68139;DHT22;54940;50.842;4.410;2023-04-03T01:53:24;4.50;99.90
68139;DHT22;54940;50.842;4.410;2023-04-03T01:55:50;4.60;99.90
68139;DHT22;54940;50.842;4.410;2023-04-03T01:58:16;4.70;99.90
68139;DHT22;54940;50.842;4.410;2023-04-03T02:00:42;4.80;99.90
68139;DHT22;54940;50.842;4.410;2023-04-03T02:03:07;4.80;99.90
68139;DHT22;54940;50.842;4.410;2023-04-03T02:05:33;4.90;99.90
68139;DHT22;54940;50.842;4.410;2023-04-03T02:07:59;4.80;99.90
68139;DHT22;54940;50.842;4.410;2023-04-03T02:10:25;4.90;99.90
68139;DHT22;54940;50.842;4.410;2023-04-03T02:12:50;4.90;99.90
68139;DHT22;54940;50.842;4.410;2023-04-03T02:15:17;4.90;99.90
68139;DHT22;54940;50.842;4.410;2023-04-03T02:17:42;4.90;99.90
68139;DHT22;54940;50.842;4.410;2023-04-03T02:20:09;4.80;99.90
68139;DHT22;54940;50.842;4.410;2023-04-03T02:22:35;4.80;99.90
68139;DHT22;54940;50.842;4.410;2023-04-03T02:25:01;4.60;99.90
68139;DHT22;54940;50.842;4.410;2023-04-03T02:27:27;4.60;99.90
68139;DHT22;54940;50.842;4.410;2023-04-03T02:29:53;4.60;99.90
68139;DHT22;54940;50.842;4.410;2023-04-03T02:32:18;4.60;99.90
68139;DHT22;54940;50.842;4.410;2023-04-03T02:34:44;4.50;99.90
68139;DHT22;54940;50.842;4.410;2023-04-03T02:37:10;4.50;99.90
68139;DHT22;54940;50.842;4.410;2023-04-03T02:39:35;4.50;99.90
68139;DHT22;54940;50.842;4.410;2023-04-03T02:42:01;4.50;99.90
68139;DHT22;54940;50.842;4.410;2023-04-03T02:44:27;4.40;99.90
68139;DHT22;54940;50.842;4.410;2023-04-03T02:46:52;4.40;99.90
68139;DHT22;54940;50.842;4.410;2023-04-03T02:49:18;4.40;99.90
68139;DHT22;54940;50.842;4.410;2023-04-03T02:51:44;4.40;99.90
68139;DHT22;54940;50.842;4.410;2023-04-03T02:54:09;4.50;99.90
68139;DHT22;54940;50.842;4.410;2023-04-03T02:56:35;4.40;99.90
68139;DHT22;54940;50.842;4.410;2023-04-03T02:59:01;4.40;99.90
68139;DHT22;54940;50.842;4.410;2023-04-03T03:01:27;4.40;99.90
68139;DHT22;54940;50.842;4.410;2023-04-03T03:03:57;4.20;99.90
68139;DHT22;54940;50.842;4.410;2023-04-03T03:06:22;4.30;99.90
68139;DHT22;54940;50.842;4.410;2023-04-03T03:08:48;4.20;99.90
68139;DHT22;54940;50.842;4.410;2023-04-03T03:11:14;4.20;99.90
68139;DHT22;54940;50.842;4.410;2023-04-03T03:13:39;4.30;99.90
68139;DHT22;54940;50.842;4.410;2023-04-03T03:16:06;4.20;99.90
68139;DHT22;54940;50.842;4.410;2023-04-03T03:18:32;4.20;99.90
68139;DHT22;54940;50.842;4.410;2023-04-03T03:21:00;4.20;99.90
68139;DHT22;54940;50.842;4.410;2023-04-03T03:23:27;4.40;99.90
68139;DHT22;54940;50.842;4.410;2023-04-03T03:26:01;4.30;99.90
68139;DHT22;54940;50.842;4.410;2023-04-03T03:28:28;4.40;99.90
68139;DHT22;54940;50.842;4.410;2023-04-03T03:30:54;4.40;99.90
68139;DHT22;54940;50.842;4.410;2023-04-03T03:33:19;4.30;99.90
68139;DHT22;54940;50.842;4.410;2023-04-03T03:35:45;4.30;99.90
68139;DHT22;54940;50.842;4.410;2023-04-03T03:38:11;4.30;99.90
68139;DHT22;54940;50.842;4.410;2023-04-03T03:40:37;4.40;99.90
68139;DHT22;54940;50.842;4.410;2023-04-03T03:43:02;4.40;99.90
68139;DHT22;54940;50.842;4.410;2023-04-03T03:45:28;4.50;99.90
68139;DHT22;54940;50.842;4.410;2023-04-03T03:47:54;4.50;99.90
68139;DHT22;54940;50.842;4.410;2023-04-03T03:50:19;4.50;99.90
68139;DHT22;54940;50.842;4.410;2023-04-03T03:52:45;4.60;99.90
68139;DHT22;54940;50.842;4.410;2023-04-03T03:55:11;4.50;99.90
68139;DHT22;54940;50.842;4.410;2023-04-03T03:57:37;4.60;99.90
68139;DHT22;54940;50.842;4.410;2023-04-03T04:00:04;4.60;99.90
68139;DHT22;54940;50.842;4.410;2023-04-03T04:02:29;4.60;99.90
68139;DHT22;54940;50.842;4.410;2023-04-03T04:04:55;4.60;99.90
68139;DHT22;54940;50.842;4.410;2023-04-03T04:07:21;4.60;99.90
68139;DHT22;54940;50.842;4.410;2023-04-03T04:09:46;4.60;99.90
68139;DHT22;54940;50.842;4.410;2023-04-03T04:12:12;4.60;99.90
68139;DHT22;54940;50.842;4.410;2023-04-03T04:14:38;4.60;99.90
68139;DHT22;54940;50.842;4.410;2023-04-03T04:17:03;4.60;99.90
68139;DHT22;54940;50.842;4.410;2023-04-03T04:19:29;4.60;99.90
68139;DHT22;54940;50.842;4.410;2023-04-03T04:21:55;4.50;99.90
68139;DHT22;54940;50.842;4.410;2023-04-03T04:24:20;4.50;99.90
68139;DHT22;54940;50.842;4.410;2023-04-03T04:26:48;4.40;99.90
68139;DHT22;54940;50.842;4.410;2023-04-03T04:29:14;4.40;99.90
68139;DHT22;54940;50.842;4.410;2023-04-03T04:31:39;4.20;99.90
68139;DHT22;54940;50.842;4.410;2023-04-03T04:34:05;4.30;99.90
68139;DHT22;54940;50.842;4.410;2023-04-03T04:36:31;4.30;99.90
68139;DHT22;54940;50.842;4.410;2023-04-03T04:38:56;4.30;99.90
68139;DHT22;54940;50.842;4.410;2023-04-03T04:41:24;4.20;99.90
68139;DHT22;54940;50.842;4.410;2023-04-03T04:43:50;4.10;99.90
68139;DHT22;54940;50.842;4.410;2023-04-03T04:46:16;4.00;99.90
68139;DHT22;54940;50.842;4.410;2023-04-03T04:48:42;4.00;99.90
68139;DHT22;54940;50.842;4.410;2023-04-03T04:51:07;4.00;99.90
68139;DHT22;54940;50.842;4.410;2023-04-03T04:53:33;4.00;99.90
68139;DHT22;54940;50.842;4.410;2023-04-03T04:55:59;3.90;99.90
68139;DHT22;54940;50.842;4.410;2023-04-03T04:58:25;3.90;99.90
68139;DHT22;54940;50.842;4.410;2023-04-03T05:01:02;4.00;99.90
68139;DHT22;54940;50.842;4.410;2023-04-03T05:03:28;4.00;99.90
68139;DHT22;54940;50.842;4.410;2023-04-03T05:05:53;4.00;99.90
68139;DHT22;54940;50.842;4.410;2023-04-03T05:08:19;4.00;99.90
68139;DHT22;54940;50.842;4.410;2023-04-03T05:10:46;4.00;99.90
68139;DHT22;54940;50.842;4.410;2023-04-03T05:13:12;4.00;99.90
68139;DHT22;54940;50.842;4.410;2023-04-03T05:15:38;4.10;99.90
68139;DHT22;54940;50.842;4.410;2023-04-03T05:18:03;4.10;99.90
68139;DHT22;54940;50.842;4.410;2023-04-03T05:20:31;4.10;99.90
68139;DHT22;54940;50.842;4.410;2023-04-03T05:22:56;4.10;99.90
68139;DHT22;54940;50.842;4.410;2023-04-03T05:25:22;4.20;99.90
68139;DHT22;54940;50.842;4.410;2023-04-03T05:27:48;4.10;99.90
68139;DHT22;54940;50.842;4.410;2023-04-03T05:30:13;4.10;99.90
68139;DHT22;54940;50.842;4.410;2023-04-03T05:32:39;4.10;99.90
68139;DHT22;54940;50.842;4.410;2023-04-03T05:35:06;4.20;99.90
68139;DHT22;54940;50.842;4.410;2023-04-03T05:37:33;4.10;99.90
68139;DHT22;54940;50.842;4.410;2023-04-03T05:39:59;4.20;99.90
68139;DHT22;54940;50.842;4.410;2023-04-03T05:42:25;4.20;99.90
68139;DHT22;54940;50.842;4.410;2023-04-03T05:44:50;4.20;99.90
68139;DHT22;54940;50.842;4.410;2023-04-03T05:47:17;4.20;99.90
68139;DHT22;54940;50.842;4.410;2023-04-03T05:49:43;4.30;99.90
68139;DHT22;54940;50.842;4.410;2023-04-03T05:52:31;4.30;99.90
68139;DHT22;54940;50.842;4.410;2023-04-03T05:54:58;4.30;99.90
68139;DHT22;54940;50.842;4.410;2023-04-03T05:57:24;4.40;99.90
68139;DHT22;54940;50.842;4.410;2023-04-03T05:59:50;4.70;99.90
68139;DHT22;54940;50.842;4.410;2023-04-03T06:02:18;4.70;99.90
68139;DHT22;54940;50.842;4.410;2023-04-03T06:04:44;4.40;99.90
68139;DHT22;54940;50.842;4.410;2023-04-03T06:07:13;4.40;99.90
68139;DHT22;54940;50.842;4.410;2023-04-03T06:09:41;4.20;99.90
68139;DHT22;54940;50.842;4.410;2023-04-03T06:12:07;4.20;99.90
68139;DHT22;54940;50.842;4.410;2023-04-03T06:14:33;4.10;99.90
68139;DHT22;54940;50.842;4.410;2023-04-03T06:16:59;4.10;99.90
68139;DHT22;54940;50.842;4.410;2023-04-03T06:19:25;4.00;99.90
68139;DHT22;54940;50.842;4.410;2023-04-03T06:21:51;4.00;99.90
68139;DHT22;54940;50.842;4.410;2023-04-03T06:24:17;4.00;99.90
68139;DHT22;54940;50.842;4.410;2023-04-03T06:26:43;3.90;99.90
68139;DHT22;54940;50.842;4.410;2023-04-03T06:29:09;4.00;99.90
68139;DHT22;54940;50.842;4.410;2023-04-03T06:31:35;4.00;99.90
68139;DHT22;54940;50.842;4.410;2023-04-03T06:34:02;4.00;99.90
68139;DHT22;54940;50.842;4.410;2023-04-03T06:36:28;4.00;99.90
68139;DHT22;54940;50.842;4.410;2023-04-03T06:38:54;4.00;99.90
68139;DHT22;54940;50.842;4.410;2023-04-03T06:41:20;4.00;99.90
68139;DHT22;54940;50.842;4.410;2023-04-03T06:43:46;4.10;99.90
68139;DHT22;54940;50.842;4.410;2023-04-03T06:46:17;4.10;99.90
68139;DHT22;54940;50.842;4.410;2023-04-03T06:48:44;4.10;99.90
68139;DHT22;54940;50.842;4.410;2023-04-03T06:51:29;4.20;99.90
68139;DHT22;54940;50.842;4.410;2023-04-03T06:53:56;4.60;99.90
68139;DHT22;54940;50.842;4.410;2023-04-03T06:56:22;4.90;99.90
68139;DHT22;54940;50.842;4.410;2023-04-03T06:58:48;4.90;99.90
68139;DHT22;54940;50.842;4.410;2023-04-03T07:01:16;4.70;99.90
68139;DHT22;54940;50.842;4.410;2023-04-03T07:03:43;4.70;99.90
68139;DHT22;54940;50.842;4.410;2023-04-03T07:06:11;4.70;99.90
68139;DHT22;54940;50.842;4.410;2023-04-03T07:08:38;4.60;99.90
68139;DHT22;54940;50.842;4.410;2023-04-03T07:11:04;4.70;99.90
68139;DHT22;54940;50.842;4.410;2023-04-03T07:13:30;4.90;99.90
68139;DHT22;54940;50.842;4.410;2023-04-03T07:15:56;5.50;99.90
68139;DHT22;54940;50.842;4.410;2023-04-03T07:18:23;5.80;99.90
68139;DHT22;54940;50.842;4.410;2023-04-03T07:20:48;6.10;99.90
68139;DHT22;54940;50.842;4.410;2023-04-03T07:23:14;6.70;99.90
68139;DHT22;54940;50.842;4.410;2023-04-03T07:25:44;7.20;99.90
68139;DHT22;54940;50.842;4.410;2023-04-03T07:28:10;7.10;99.90
68139;DHT22;54940;50.842;4.410;2023-04-03T07:30:45;7.20;99.90
68139;DHT22;54940;50.842;4.410;2023-04-03T07:33:13;7.40;99.90
68139;DHT22;54940;50.842;4.410;2023-04-03T07:35:39;7.40;99.90
68139;DHT22;54940;50.842;4.410;2023-04-03T07:38:06;7.70;99.90
68139;DHT22;54940;50.842;4.410;2023-04-03T07:40:32;7.80;99.90
68139;DHT22;54940;50.842;4.410;2023-04-03T07:42:58;7.80;99.90
68139;DHT22;54940;50.842;4.410;2023-04-03T07:45:24;7.90;99.90
68139;DHT22;54940;50.842;4.410;2023-04-03T07:47:50;7.90;99.90
68139;DHT22;54940;50.842;4.410;2023-04-03T07:50:16;8.00;99.90
68139;DHT22;54940;50.842;4.410;2023-04-03T07:52:41;8.10;99.90
68139;DHT22;54940;50.842;4.410;2023-04-03T07:55:07;8.30;99.90
68139;DHT22;54940;50.842;4.410;2023-04-03T07:57:33;8.30;99.90
68139;DHT22;54940;50.842;4.410;2023-04-03T07:59:59;8.40;99.90
68139;DHT22;54940;50.842;4.410;2023-04-03T08:02:24;8.90;99.90
68139;DHT22;54940;50.842;4.410;2023-04-03T08:04:50;9.00;99.90
68139;DHT22;54940;50.842;4.410;2023-04-03T08:07:16;8.90;99.90
68139;DHT22;54940;50.842;4.410;2023-04-03T08:09:42;9.30;99.90
68139;DHT22;54940;50.842;4.410;2023-04-03T08:12:07;9.60;99.90
68139;DHT22;54940;50.842;4.410;2023-04-03T08:14:33;9.30;99.90
68139;DHT22;54940;50.842;4.410;2023-04-03T08:17:02;9.40;99.90
68139;DHT22;54940;50.842;4.410;2023-04-03T08:19:29;9.70;99.90
68139;DHT22;54940;50.842;4.410;2023-04-03T08:21:55;9.70;99.90
68139;DHT22;54940;50.842;4.410;2023-04-03T08:24:22;10.00;99.90
68139;DHT22;54940;50.842;4.410;2023-04-03T08:26:47;10.10;99.90
68139;DHT22;54940;50.842;4.410;2023-04-03T08:29:13;10.20;99.90
68139;DHT22;54940;50.842;4.410;2023-04-03T08:31:39;10.40;99.90
68139;DHT22;54940;50.842;4.410;2023-04-03T08:34:04;10.10;99.90
68139;DHT22;54940;50.842;4.410;2023-04-03T08:36:30;10.20;99.90
68139;DHT22;54940;50.842;4.410;2023-04-03T08:38:57;10.50;99.90
68139;DHT22;54940;50.842;4.410;2023-04-03T08:47:04;10.80;99.90
68139;DHT22;54940;50.842;4.410;2023-04-03T08:49:42;10.90;99.90
68139;DHT22;54940;50.842;4.410;2023-04-03T08:52:18;11.10;99.90
68139;DHT22;54940;50.842;4.410;2023-04-03T08:54:51;11.10;99.90
68139;DHT22;54940;50.842;4.410;2023-04-03T08:57:24;11.30;99.90
68139;DHT22;54940;50.842;4.410;2023-04-03T08:59:52;11.10;99.90
68139;DHT22;54940;50.842;4.410;2023-04-03T09:02:25;11.00;99.90
68139;DHT22;54940;50.842;4.410;2023-04-03T09:04:53;10.80;99.90
68139;DHT22;54940;50.842;4.410;2023-04-03T09:07:37;11.00;99.90
68139;DHT22;54940;50.842;4.410;2023-04-03T09:10:05;11.10;99.90
68139;DHT22;54940;50.842;4.410;2023-04-03T09:12:42;11.00;99.90
68139;DHT22;54940;50.842;4.410;2023-04-03T09:15:19;11.30;99.90
68139;DHT22;54940;50.842;4.410;2023-04-03T09:23:29;11.70;99.90
68139;DHT22;54940;50.842;4.410;2023-04-03T09:28:42;11.60;99.90
68139;DHT22;54940;50.842;4.410;2023-04-03T09:31:29;11.10;99.90
68139;DHT22;54940;50.842;4.410;2023-04-03T09:34:02;11.30;99.90
68139;DHT22;54940;50.842;4.410;2023-04-03T09:36:55;11.30;99.90
68139;DHT22;54940;50.842;4.410;2023-04-03T09:39:26;11.30;99.90
68139;DHT22;54940;50.842;4.410;2023-04-03T09:42:02;11.40;99.90
68139;DHT22;54940;50.842;4.410;2023-04-03T09:46:58;11.70;99.90
68139;DHT22;54940;50.842;4.410;2023-04-03T09:49:24;11.90;99.90
68139;DHT22;54940;50.842;4.410;2023-04-03T09:51:50;11.90;99.90
68139;DHT22;54940;50.842;4.410;2023-04-03T09:57:03;12.00;99.90
68139;DHT22;54940;50.842;4.410;2023-04-03T09:59:31;11.40;99.90
68139;DHT22;54940;50.842;4.410;2023-04-03T10:02:00;11.10;99.90
68139;DHT22;54940;50.842;4.410;2023-04-03T10:04:37;11.30;99.90
68139;DHT22;54940;50.842;4.410;2023-04-03T10:07:03;11.70;99.90
68139;DHT22;54940;50.842;4.410;2023-04-03T10:09:31;11.70;99.90
68139;DHT22;54940;50.842;4.410;2023-04-03T10:12:11;11.50;99.90
68139;DHT22;54940;50.842;4.410;2023-04-03T10:14:39;11.80;99.90
68139;DHT22;54940;50.842;4.410;2023-04-03T10:17:14;11.70;99.90
68139;DHT22;54940;50.842;4.410;2023-04-03T10:19:59;11.00;99.90
68139;DHT22;54940;50.842;4.410;2023-04-03T10:28:10;11.30;99.90
68139;DHT22;54940;50.842;4.410;2023-04-03T10:30:46;11.50;99.90
68139;DHT22;54940;50.842;4.410;2023-04-03T10:33:23;11.40;99.90
68139;DHT22;54940;50.842;4.410;2023-04-03T10:36:06;11.60;99.90
68139;DHT22;54940;50.842;4.410;2023-04-03T10:39:02;11.60;99.90
68139;DHT22;54940;50.842;4.410;2023-04-03T10:41:33;11.60;99.90
68139;DHT22;54940;50.842;4.410;2023-04-03T10:47:17;12.10;99.90
68139;DHT22;54940;50.842;4.410;2023-04-03T10:55:52;11.70;99.90
68139;DHT22;54940;50.842;4.410;2023-04-03T11:00:55;11.80;99.90
68139;DHT22;54940;50.842;4.410;2023-04-03T11:03:31;12.10;99.90
68139;DHT22;54940;50.842;4.410;2023-04-03T11:06:01;12.40;99.90
68139;DHT22;54940;50.842;4.410;2023-04-03T11:11:19;13.00;99.90
68139;DHT22;54940;50.842;4.410;2023-04-03T11:13:55;12.80;97.70
68139;DHT22;54940;50.842;4.410;2023-04-03T11:16:28;12.50;99.90
68139;DHT22;54940;50.842;4.410;2023-04-03T11:19:05;12.50;99.90
68139;DHT22;54940;50.842;4.410;2023-04-03T11:21:37;12.30;99.90
68139;DHT22;54940;50.842;4.410;2023-04-03T11:24:09;12.20;99.90
68139;DHT22;54940;50.842;4.410;2023-04-03T11:26:41;12.10;99.90
68139;DHT22;54940;50.842;4.410;2023-04-03T11:29:15;12.20;99.90
68139;DHT22;54940;50.842;4.410;2023-04-03T11:32:00;12.60;99.90
68139;DHT22;54940;50.842;4.410;2023-04-03T11:34:41;12.90;99.90
68139;DHT22;54940;50.842;4.410;2023-04-03T11:37:31;13.10;99.90
68139;DHT22;54940;50.842;4.410;2023-04-03T11:42:40;12.90;99.90
68139;DHT22;54940;50.842;4.410;2023-04-03T11:50:47;12.80;98.20
68139;DHT22;54940;50.842;4.410;2023-04-03T11:58:28;11.60;99.90
68139;DHT22;54940;50.842;4.410;2023-04-03T12:45:24;13.40;93.50
68139;DHT22;54940;50.842;4.410;2023-04-03T12:47:54;13.40;99.10
68139;DHT22;54940;50.842;4.410;2023-04-03T12:50:30;13.60;96.10
68139;DHT22;54940;50.842;4.410;2023-04-03T12:53:03;13.60;92.80
68139;DHT22;54940;50.842;4.410;2023-04-03T12:55:30;13.60;91.10
68139;DHT22;54940;50.842;4.410;2023-04-03T12:57:56;13.40;91.40
68139;DHT22;54940;50.842;4.410;2023-04-03T13:00:29;13.10;83.50
68139;DHT22;54940;50.842;4.410;2023-04-03T13:02:56;12.30;78.60
68139;DHT22;54940;50.842;4.410;2023-04-03T13:05:22;12.10;90.10
68139;DHT22;54940;50.842;4.410;2023-04-03T13:07:52;12.50;96.40
68139;DHT22;54940;50.842;4.410;2023-04-03T13:10:20;12.60;86.10
68139;DHT22;54940;50.842;4.410;2023-04-03T13:12:55;12.90;91.00
68139;DHT22;54940;50.842;4.410;2023-04-03T13:15:27;12.90;88.10
68139;DHT22;54940;50.842;4.410;2023-04-03T13:17:54;12.80;93.30
68139;DHT22;54940;50.842;4.410;2023-04-03T13:20:28;12.80;91.60
68139;DHT22;54940;50.842;4.410;2023-04-03T13:23:01;13.10;89.80
68139;DHT22;54940;50.842;4.410;2023-04-03T13:25:30;12.80;88.30
68139;DHT22;54940;50.842;4.410;2023-04-03T13:27:58;12.90;91.90
68139;DHT22;54940;50.842;4.410;2023-04-03T13:32:53;12.70;84.00
68139;DHT22;54940;50.842;4.410;2023-04-03T13:35:32;12.60;92.30
68139;DHT22;54940;50.842;4.410;2023-04-03T13:38:03;12.70;86.10
68139;DHT22;54940;50.842;4.410;2023-04-03T13:40:29;12.80;92.60
68139;DHT22;54940;50.842;4.410;2023-04-03T13:43:04;12.70;82.00
68139;DHT22;54940;50.842;4.410;2023-04-03T13:45:32;12.40;86.60
68139;DHT22;54940;50.842;4.410;2023-04-03T13:48:19;12.50;79.30
68139;DHT22;54940;50.842;4.410;2023-04-03T13:51:12;12.30;75.60
68139;DHT22;54940;50.842;4.410;2023-04-03T13:53:46;11.80;79.50
68139;DHT22;54940;50.842;4.410;2023-04-03T13:56:38;11.80;85.40
68139;DHT22;54940;50.842;4.410;2023-04-03T13:59:18;12.00;88.50
68139;DHT22;54940;50.842;4.410;2023-04-03T14:04:20;12.30;83.20
68139;DHT22;54940;50.842;4.410;2023-04-03T14:06:48;12.30;85.80
68139;DHT22;54940;50.842;4.410;2023-04-03T14:09:15;12.20;85.70
68139;DHT22;54940;50.842;4.410;2023-04-03T14:11:42;12.10;85.30
68139;DHT22;54940;50.842;4.410;2023-04-03T14:14:27;12.20;84.20
68139;DHT22;54940;50.842;4.410;2023-04-03T14:16:58;12.30;84.10
68139;DHT22;54940;50.842;4.410;2023-04-03T14:19:31;12.40;85.00
68139;DHT22;54940;50.842;4.410;2023-04-03T14:21:58;12.60;90.50
68139;DHT22;54940;50.842;4.410;2023-04-03T14:24:24;12.60;90.10
68139;DHT22;54940;50.842;4.410;2023-04-03T14:26:52;12.40;87.90
68139;DHT22;54940;50.842;4.410;2023-04-03T14:29:19;12.10;85.60
68139;DHT22;54940;50.842;4.410;2023-04-03T14:31:46;12.10;84.00
68139;DHT22;54940;50.842;4.410;2023-04-03T14:34:13;11.60;78.40
68139;DHT22;54940;50.842;4.410;2023-04-03T14:36:42;11.60;90.30
68139;DHT22;54940;50.842;4.410;2023-04-03T14:39:11;11.70;87.30
68139;DHT22;54940;50.842;4.410;2023-04-03T14:41:42;11.90;88.40
68139;DHT22;54940;50.842;4.410;2023-04-03T14:44:08;12.00;90.20
68139;DHT22;54940;50.842;4.410;2023-04-03T14:46:40;12.20;83.20
68139;DHT22;54940;50.842;4.410;2023-04-03T14:49:22;12.20;87.30
68139;DHT22;54940;50.842;4.410;2023-04-03T14:51:48;12.50;91.30
68139;DHT22;54940;50.842;4.410;2023-04-03T14:54:18;12.20;81.60
68139;DHT22;54940;50.842;4.410;2023-04-03T14:56:45;12.00;84.50
68139;DHT22;54940;50.842;4.410;2023-04-03T14:59:14;11.90;84.20
68139;DHT22;54940;50.842;4.410;2023-04-03T15:01:41;12.00;86.60
68139;DHT22;54940;50.842;4.410;2023-04-03T15:04:17;12.10;85.30
68139;DHT22;54940;50.842;4.410;2023-04-03T15:06:43;11.90;84.80
68139;DHT22;54940;50.842;4.410;2023-04-03T15:09:26;11.80;89.00
68139;DHT22;54940;50.842;4.410;2023-04-03T15:11:53;11.60;82.10
68139;DHT22;54940;50.842;4.410;2023-04-03T15:14:20;11.40;82.40
68139;DHT22;54940;50.842;4.410;2023-04-03T15:16:46;11.40;86.90
68139;DHT22;54940;50.842;4.410;2023-04-03T15:19:12;11.30;87.80
68139;DHT22;54940;50.842;4.410;2023-04-03T15:21:38;11.40;85.70
68139;DHT22;54940;50.842;4.410;2023-04-03T15:24:04;11.40;80.80
68139;DHT22;54940;50.842;4.410;2023-04-03T15:26:31;11.40;82.60
68139;DHT22;54940;50.842;4.410;2023-04-03T15:28:57;11.40;83.00
68139;DHT22;54940;50.842;4.410;2023-04-03T15:31:22;11.20;77.30
68139;DHT22;54940;50.842;4.410;2023-04-03T15:33:48;10.80;81.50
68139;DHT22;54940;50.842;4.410;2023-04-03T15:36:14;10.70;83.70
68139;DHT22;54940;50.842;4.410;2023-04-03T15:38:39;10.70;84.80
68139;DHT22;54940;50.842;4.410;2023-04-03T15:41:05;10.70;86.10
68139;DHT22;54940;50.842;4.410;2023-04-03T15:43:31;10.70;77.70
68139;DHT22;54940;50.842;4.410;2023-04-03T15:45:59;10.60;85.20
68139;DHT22;54940;50.842;4.410;2023-04-03T15:48:26;10.60;85.90
68139;DHT22;54940;50.842;4.410;2023-04-03T15:50:52;10.60;86.30
68139;DHT22;54940;50.842;4.410;2023-04-03T15:53:18;10.60;85.10
68139;DHT22;54940;50.842;4.410;2023-04-03T15:55:44;10.60;84.30
68139;DHT22;54940;50.842;4.410;2023-04-03T15:58:09;10.50;89.10
68139;DHT22;54940;50.842;4.410;2023-04-03T16:00:36;10.50;90.80
68139;DHT22;54940;50.842;4.410;2023-04-03T16:03:15;10.50;91.60
68139;DHT22;54940;50.842;4.410;2023-04-03T16:05:41;10.30;88.70
68139;DHT22;54940;50.842;4.410;2023-04-03T16:08:07;10.30;91.90
68139;DHT22;54940;50.842;4.410;2023-04-03T16:10:34;10.40;91.60
68139;DHT22;54940;50.842;4.410;2023-04-03T16:13:00;10.30;92.60
68139;DHT22;54940;50.842;4.410;2023-04-03T16:15:26;10.40;92.00
68139;DHT22;54940;50.842;4.410;2023-04-03T16:17:53;10.40;93.00
68139;DHT22;54940;50.842;4.410;2023-04-03T16:20:19;10.30;92.40
68139;DHT22;54940;50.842;4.410;2023-04-03T16:22:47;10.20;91.00
68139;DHT22;54940;50.842;4.410;2023-04-03T16:25:13;10.20;91.10
68139;DHT22;54940;50.842;4.410;2023-04-03T16:27:40;10.20;90.40
68139;DHT22;54940;50.842;4.410;2023-04-03T16:30:06;9.90;92.50
68139;DHT22;54940;50.842;4.410;2023-04-03T16:32:33;10.00;94.50
68139;DHT22;54940;50.842;4.410;2023-04-03T16:34:59;10.00;94.40
68139;DHT22;54940;50.842;4.410;2023-04-03T16:37:25;10.00;93.40
68139;DHT22;54940;50.842;4.410;2023-04-03T16:39:51;10.00;94.90
68139;DHT22;54940;50.842;4.410;2023-04-03T16:42:17;10.10;91.80
68139;DHT22;54940;50.842;4.410;2023-04-03T16:44:42;10.10;94.80
68139;DHT22;54940;50.842;4.410;2023-04-03T16:47:08;10.00;94.90
68139;DHT22;54940;50.842;4.410;2023-04-03T16:49:34;9.90;93.90
68139;DHT22;54940;50.842;4.410;2023-04-03T16:52:04;9.90;94.00
68139;DHT22;54940;50.842;4.410;2023-04-03T16:54:31;9.80;94.70
68139;DHT22;54940;50.842;4.410;2023-04-03T16:56:57;9.80;95.10
68139;DHT22;54940;50.842;4.410;2023-04-03T16:59:23;9.70;94.60
68139;DHT22;54940;50.842;4.410;2023-04-03T17:01:49;9.70;95.30
68139;DHT22;54940;50.842;4.410;2023-04-03T17:04:15;9.80;96.60
68139;DHT22;54940;50.842;4.410;2023-04-03T17:06:40;9.60;96.10
68139;DHT22;54940;50.842;4.410;2023-04-03T17:09:06;9.70;97.20
68139;DHT22;54940;50.842;4.410;2023-04-03T17:11:32;9.50;96.00
68139;DHT22;54940;50.842;4.410;2023-04-03T17:13:58;9.50;96.40
68139;DHT22;54940;50.842;4.410;2023-04-03T17:16:24;9.50;96.70
68139;DHT22;54940;50.842;4.410;2023-04-03T17:18:51;9.40;94.00
68139;DHT22;54940;50.842;4.410;2023-04-03T17:21:18;9.40;95.70
68139;DHT22;54940;50.842;4.410;2023-04-03T17:23:47;9.40;94.40
68139;DHT22;54940;50.842;4.410;2023-04-03T17:26:14;9.40;96.00
68139;DHT22;54940;50.842;4.410;2023-04-03T17:28:39;9.40;97.30
68139;DHT22;54940;50.842;4.410;2023-04-03T17:31:06;9.30;96.40
68139;DHT22;54940;50.842;4.410;2023-04-03T17:33:32;9.20;94.70